sensor_id;sensor_type;location;lat;lon;timestamp;P1;durP1;ratioP1;P2;durP2;ratioP2
17631;SDS011;8934;51.194;17.150;2022-09-24T00:02:05;11.73;;;10.53;;
17631;SDS011;8934;51.194;17.150;2022-09-24T00:04:56;12.17;;;10.10;;
17631;SDS011;8934;51.194;17.150;2022-09-24T00:07:45;13.57;;;11.20;;
17631;SDS011;8934;51.194;17.150;2022-09-24T00:10:35;12.53;;;10.00;;
17631;SDS011;8934;51.194;17.150;2022-09-24T00:13:25;13.57;;;10.97;;
17631;SDS011;8934;51.194;17.150;2022-09-24T00:16:13;12.37;;;10.90;;
17631;SDS011;8934;51.194;17.150;2022-09-24T00:19:03;12.53;;;11.07;;
17631;SDS011;8934;51.194;17.150;2022-09-24T00:21:51;12.13;;;10.83;;
17631;SDS011;8934;51.194;17.150;2022-09-24T00:24:40;14.37;;;10.03;;
17631;SDS011;8934;51.194;17.150;2022-09-24T00:27:45;10.47;;;9.47;;
17631;SDS011;8934;51.194;17.150;2022-09-24T00:30:36;13.17;;;10.37;;
17631;SDS011;8934;51.194;17.150;2022-09-24T00:33:24;11.07;;;10.07;;
17631;SDS011;8934;51.194;17.150;2022-09-24T00:36:13;11.77;;;10.17;;
17631;SDS011;8934;51.194;17.150;2022-09-24T00:39:00;11.33;;;10.27;;
17631;SDS011;8934;51.194;17.150;2022-09-24T00:41:50;11.77;;;10.30;;
17631;SDS011;8934;51.194;17.150;2022-09-24T00:44:44;10.40;;;9.33;;
17631;SDS011;8934;51.194;17.150;2022-09-24T00:47:39;11.97;;;9.67;;
17631;SDS011;8934;51.194;17.150;2022-09-24T00:50:30;12.63;;;9.63;;
17631;SDS011;8934;51.194;17.150;2022-09-24T00:53:21;10.97;;;9.53;;
17631;SDS011;8934;51.194;17.150;2022-09-24T00:56:13;10.43;;;9.20;;
17631;SDS011;8934;51.194;17.150;2022-09-24T00:59:04;9.53;;;8.50;;
17631;SDS011;8934;51.194;17.150;2022-09-24T01:01:55;9.73;;;8.83;;
17631;SDS011;8934;51.194;17.150;2022-09-24T01:04:44;11.07;;;9.83;;
17631;SDS011;8934;51.194;17.150;2022-09-24T01:07:36;9.17;;;8.23;;
17631;SDS011;8934;51.194;17.150;2022-09-24T01:10:26;10.10;;;8.97;;
17631;SDS011;8934;51.194;17.150;2022-09-24T01:13:41;10.50;;;9.03;;
17631;SDS011;8934;51.194;17.150;2022-09-24T01:16:43;12.63;;;9.67;;
17631;SDS011;8934;51.194;17.150;2022-09-24T01:19:43;10.33;;;9.23;;
17631;SDS011;8934;51.194;17.150;2022-09-24T01:22:54;10.93;;;8.60;;
17631;SDS011;8934;51.194;17.150;2022-09-24T01:25:56;9.90;;;8.70;;
17631;SDS011;8934;51.194;17.150;2022-09-24T01:29:23;8.73;;;7.97;;
17631;SDS011;8934;51.194;17.150;2022-09-24T01:32:19;9.73;;;8.70;;
17631;SDS011;8934;51.194;17.150;2022-09-24T01:35:18;14.80;;;9.67;;
17631;SDS011;8934;51.194;17.150;2022-09-24T01:38:15;10.50;;;8.90;;
17631;SDS011;8934;51.194;17.150;2022-09-24T01:41:08;10.33;;;9.17;;
17631;SDS011;8934;51.194;17.150;2022-09-24T01:44:00;9.50;;;8.03;;
17631;SDS011;8934;51.194;17.150;2022-09-24T01:46:51;10.67;;;9.57;;
17631;SDS011;8934;51.194;17.150;2022-09-24T01:49:40;11.97;;;9.70;;
17631;SDS011;8934;51.194;17.150;2022-09-24T01:52:30;11.20;;;10.17;;
17631;SDS011;8934;51.194;17.150;2022-09-24T01:55:24;10.27;;;9.27;;
17631;SDS011;8934;51.194;17.150;2022-09-24T01:58:16;11.00;;;9.90;;
17631;SDS011;8934;51.194;17.150;2022-09-24T02:01:09;10.13;;;9.03;;
17631;SDS011;8934;51.194;17.150;2022-09-24T02:04:03;10.90;;;9.80;;
17631;SDS011;8934;51.194;17.150;2022-09-24T02:06:56;10.73;;;9.57;;
17631;SDS011;8934;51.194;17.150;2022-09-24T02:09:49;10.67;;;9.30;;
17631;SDS011;8934;51.194;17.150;2022-09-24T02:12:37;12.10;;;9.67;;
17631;SDS011;8934;51.194;17.150;2022-09-24T02:15:28;11.47;;;10.37;;
17631;SDS011;8934;51.194;17.150;2022-09-24T02:18:21;12.67;;;11.37;;
17631;SDS011;8934;51.194;17.150;2022-09-24T02:21:14;11.40;;;10.30;;
17631;SDS011;8934;51.194;17.150;2022-09-24T02:24:04;13.90;;;11.70;;
17631;SDS011;8934;51.194;17.150;2022-09-24T02:26:57;11.27;;;10.17;;
17631;SDS011;8934;51.194;17.150;2022-09-24T02:29:45;11.50;;;10.30;;
17631;SDS011;8934;51.194;17.150;2022-09-24T02:32:33;12.00;;;10.90;;
17631;SDS011;8934;51.194;17.150;2022-09-24T02:35:25;11.47;;;10.37;;
17631;SDS011;8934;51.194;17.150;2022-09-24T02:38:15;11.33;;;10.23;;
17631;SDS011;8934;51.194;17.150;2022-09-24T02:41:05;11.90;;;10.70;;
17631;SDS011;8934;51.194;17.150;2022-09-24T02:43:53;11.67;;;10.50;;
17631;SDS011;8934;51.194;17.150;2022-09-24T02:46:41;12.20;;;10.40;;
17631;SDS011;8934;51.194;17.150;2022-09-24T02:49:29;14.33;;;11.83;;
17631;SDS011;8934;51.194;17.150;2022-09-24T02:52:16;13.63;;;12.27;;
17631;SDS011;8934;51.194;17.150;2022-09-24T02:55:06;12.23;;;11.00;;
17631;SDS011;8934;51.194;17.150;2022-09-24T02:57:54;11.93;;;10.80;;
17631;SDS011;8934;51.194;17.150;2022-09-24T03:00:42;13.27;;;11.03;;
17631;SDS011;8934;51.194;17.150;2022-09-24T03:03:30;15.47;;;13.63;;
17631;SDS011;8934;51.194;17.150;2022-09-24T03:06:17;15.33;;;13.57;;
17631;SDS011;8934;51.194;17.150;2022-09-24T03:09:05;15.07;;;13.47;;
17631;SDS011;8934;51.194;17.150;2022-09-24T03:11:54;15.60;;;14.00;;
17631;SDS011;8934;51.194;17.150;2022-09-24T03:14:45;14.70;;;12.03;;
17631;SDS011;8934;51.194;17.150;2022-09-24T03:17:33;13.77;;;12.37;;
17631;SDS011;8934;51.194;17.150;2022-09-24T03:20:21;13.33;;;12.03;;
17631;SDS011;8934;51.194;17.150;2022-09-24T03:23:09;13.30;;;11.90;;
17631;SDS011;8934;51.194;17.150;2022-09-24T03:25:57;13.07;;;11.10;;
17631;SDS011;8934;51.194;17.150;2022-09-24T03:28:46;14.23;;;12.57;;
17631;SDS011;8934;51.194;17.150;2022-09-24T03:31:34;15.80;;;13.80;;
17631;SDS011;8934;51.194;17.150;2022-09-24T03:34:21;15.57;;;13.60;;
17631;SDS011;8934;51.194;17.150;2022-09-24T03:37:09;14.73;;;12.20;;
17631;SDS011;8934;51.194;17.150;2022-09-24T03:39:56;15.97;;;13.43;;
17631;SDS011;8934;51.194;17.150;2022-09-24T03:42:44;14.93;;;13.33;;
17631;SDS011;8934;51.194;17.150;2022-09-24T03:45:33;15.53;;;13.93;;
17631;SDS011;8934;51.194;17.150;2022-09-24T03:48:23;16.00;;;13.63;;
17631;SDS011;8934;51.194;17.150;2022-09-24T03:51:12;15.50;;;13.57;;
17631;SDS011;8934;51.194;17.150;2022-09-24T03:54:03;13.80;;;12.30;;
17631;SDS011;8934;51.194;17.150;2022-09-24T03:56:51;12.87;;;11.70;;
17631;SDS011;8934;51.194;17.150;2022-09-24T03:59:39;15.33;;;13.10;;
17631;SDS011;8934;51.194;17.150;2022-09-24T04:02:28;16.27;;;13.53;;
17631;SDS011;8934;51.194;17.150;2022-09-24T04:05:16;13.47;;;12.17;;
17631;SDS011;8934;51.194;17.150;2022-09-24T04:08:05;13.07;;;11.63;;
17631;SDS011;8934;51.194;17.150;2022-09-24T04:10:53;15.03;;;12.53;;
17631;SDS011;8934;51.194;17.150;2022-09-24T04:13:41;13.60;;;12.30;;
17631;SDS011;8934;51.194;17.150;2022-09-24T04:16:29;14.47;;;12.37;;
17631;SDS011;8934;51.194;17.150;2022-09-24T04:19:18;14.10;;;12.53;;
17631;SDS011;8934;51.194;17.150;2022-09-24T04:22:06;14.10;;;12.53;;
17631;SDS011;8934;51.194;17.150;2022-09-24T04:24:54;13.10;;;11.73;;
17631;SDS011;8934;51.194;17.150;2022-09-24T04:27:42;12.97;;;11.77;;
17631;SDS011;8934;51.194;17.150;2022-09-24T04:30:31;14.90;;;12.80;;
17631;SDS011;8934;51.194;17.150;2022-09-24T04:33:19;15.30;;;12.37;;
17631;SDS011;8934;51.194;17.150;2022-09-24T04:36:08;13.13;;;11.83;;
17631;SDS011;8934;51.194;17.150;2022-09-24T04:38:56;13.50;;;12.20;;
17631;SDS011;8934;51.194;17.150;2022-09-24T04:41:44;13.30;;;11.93;;
17631;SDS011;8934;51.194;17.150;2022-09-24T04:44:32;15.17;;;12.80;;
17631;SDS011;8934;51.194;17.150;2022-09-24T04:47:20;14.37;;;11.70;;
17631;SDS011;8934;51.194;17.150;2022-09-24T04:50:11;14.43;;;12.53;;
17631;SDS011;8934;51.194;17.150;2022-09-24T04:53:00;14.63;;;12.20;;
17631;SDS011;8934;51.194;17.150;2022-09-24T04:55:48;14.17;;;12.27;;
17631;SDS011;8934;51.194;17.150;2022-09-24T04:58:35;15.93;;;13.10;;
17631;SDS011;8934;51.194;17.150;2022-09-24T05:01:24;15.30;;;13.60;;
17631;SDS011;8934;51.194;17.150;2022-09-24T05:04:12;15.33;;;13.73;;
17631;SDS011;8934;51.194;17.150;2022-09-24T05:07:00;14.07;;;12.70;;
17631;SDS011;8934;51.194;17.150;2022-09-24T05:09:49;14.30;;;12.80;;
17631;SDS011;8934;51.194;17.150;2022-09-24T05:12:38;16.30;;;13.80;;
17631;SDS011;8934;51.194;17.150;2022-09-24T05:15:26;14.83;;;13.33;;
17631;SDS011;8934;51.194;17.150;2022-09-24T05:18:14;16.73;;;13.57;;
17631;SDS011;8934;51.194;17.150;2022-09-24T05:21:02;14.13;;;12.73;;
17631;SDS011;8934;51.194;17.150;2022-09-24T05:23:50;16.07;;;14.40;;
17631;SDS011;8934;51.194;17.150;2022-09-24T05:26:39;15.57;;;14.10;;
17631;SDS011;8934;51.194;17.150;2022-09-24T05:29:44;15.63;;;13.17;;
17631;SDS011;8934;51.194;17.150;2022-09-24T05:32:31;14.73;;;13.27;;
17631;SDS011;8934;51.194;17.150;2022-09-24T05:35:22;15.27;;;13.67;;
17631;SDS011;8934;51.194;17.150;2022-09-24T05:38:11;14.80;;;13.30;;
17631;SDS011;8934;51.194;17.150;2022-09-24T05:40:59;14.97;;;13.27;;
17631;SDS011;8934;51.194;17.150;2022-09-24T05:43:48;14.27;;;12.97;;
17631;SDS011;8934;51.194;17.150;2022-09-24T05:46:36;16.40;;;14.30;;
17631;SDS011;8934;51.194;17.150;2022-09-24T05:49:24;16.03;;;14.43;;
17631;SDS011;8934;51.194;17.150;2022-09-24T05:52:12;17.50;;;14.80;;
17631;SDS011;8934;51.194;17.150;2022-09-24T05:55:00;16.77;;;15.07;;
17631;SDS011;8934;51.194;17.150;2022-09-24T05:57:47;20.57;;;17.10;;
17631;SDS011;8934;51.194;17.150;2022-09-24T06:00:36;17.80;;;15.93;;
17631;SDS011;8934;51.194;17.150;2022-09-24T06:03:24;22.30;;;17.30;;
17631;SDS011;8934;51.194;17.150;2022-09-24T06:06:13;17.63;;;15.73;;
17631;SDS011;8934;51.194;17.150;2022-09-24T06:09:00;19.80;;;17.80;;
17631;SDS011;8934;51.194;17.150;2022-09-24T06:11:49;18.43;;;16.53;;
17631;SDS011;8934;51.194;17.150;2022-09-24T06:14:39;19.93;;;16.47;;
17631;SDS011;8934;51.194;17.150;2022-09-24T06:17:28;19.47;;;17.30;;
17631;SDS011;8934;51.194;17.150;2022-09-24T06:20:16;18.20;;;15.77;;
17631;SDS011;8934;51.194;17.150;2022-09-24T06:23:04;18.60;;;16.75;;
17631;SDS011;8934;51.194;17.150;2022-09-24T06:25:52;18.90;;;16.33;;
17631;SDS011;8934;51.194;17.150;2022-09-24T06:28:40;17.60;;;15.90;;
17631;SDS011;8934;51.194;17.150;2022-09-24T06:31:28;19.37;;;16.97;;
17631;SDS011;8934;51.194;17.150;2022-09-24T06:34:17;18.47;;;16.63;;
17631;SDS011;8934;51.194;17.150;2022-09-24T06:37:05;19.33;;;17.52;;
17631;SDS011;8934;51.194;17.150;2022-09-24T06:39:53;18.75;;;16.83;;
17631;SDS011;8934;51.194;17.150;2022-09-24T06:42:41;19.40;;;16.75;;
17631;SDS011;8934;51.194;17.150;2022-09-24T06:45:29;18.20;;;15.70;;
17631;SDS011;8934;51.194;17.150;2022-09-24T06:48:17;19.20;;;15.95;;
17631;SDS011;8934;51.194;17.150;2022-09-24T06:51:08;19.45;;;16.40;;
17631;SDS011;8934;51.194;17.150;2022-09-24T06:53:56;19.25;;;16.08;;
17631;SDS011;8934;51.194;17.150;2022-09-24T06:56:43;18.23;;;15.57;;
17631;SDS011;8934;51.194;17.150;2022-09-24T06:59:35;16.65;;;14.98;;
17631;SDS011;8934;51.194;17.150;2022-09-24T07:02:22;16.85;;;15.15;;
17631;SDS011;8934;51.194;17.150;2022-09-24T07:05:10;16.88;;;15.27;;
17631;SDS011;8934;51.194;17.150;2022-09-24T07:08:00;16.00;;;14.55;;
17631;SDS011;8934;51.194;17.150;2022-09-24T07:10:48;17.02;;;14.85;;
17631;SDS011;8934;51.194;17.150;2022-09-24T07:13:40;17.02;;;15.43;;
17631;SDS011;8934;51.194;17.150;2022-09-24T07:16:27;15.23;;;13.82;;
17631;SDS011;8934;51.194;17.150;2022-09-24T07:19:15;15.43;;;13.85;;
17631;SDS011;8934;51.194;17.150;2022-09-24T07:22:03;13.07;;;11.85;;
17631;SDS011;8934;51.194;17.150;2022-09-24T07:24:52;13.70;;;12.45;;
17631;SDS011;8934;51.194;17.150;2022-09-24T07:27:40;13.60;;;12.32;;
17631;SDS011;8934;51.194;17.150;2022-09-24T07:30:28;12.00;;;10.80;;
17631;SDS011;8934;51.194;17.150;2022-09-24T07:33:16;13.05;;;11.75;;
17631;SDS011;8934;51.194;17.150;2022-09-24T07:36:03;11.65;;;10.65;;
17631;SDS011;8934;51.194;17.150;2022-09-24T07:38:52;12.45;;;11.02;;
17631;SDS011;8934;51.194;17.150;2022-09-24T07:41:42;11.35;;;10.35;;
17631;SDS011;8934;51.194;17.150;2022-09-24T07:44:30;11.75;;;10.60;;
17631;SDS011;8934;51.194;17.150;2022-09-24T07:47:19;11.00;;;9.90;;
17631;SDS011;8934;51.194;17.150;2022-09-24T07:50:07;10.35;;;9.25;;
17631;SDS011;8934;51.194;17.150;2022-09-24T07:52:59;9.68;;;8.88;;
17631;SDS011;8934;51.194;17.150;2022-09-24T07:55:47;10.45;;;9.45;;
17631;SDS011;8934;51.194;17.150;2022-09-24T07:58:37;9.88;;;8.98;;
17631;SDS011;8934;51.194;17.150;2022-09-24T08:01:25;11.50;;;9.05;;
17631;SDS011;8934;51.194;17.150;2022-09-24T08:04:14;9.85;;;8.85;;
17631;SDS011;8934;51.194;17.150;2022-09-24T08:07:06;9.20;;;8.32;;
17631;SDS011;8934;51.194;17.150;2022-09-24T08:09:54;14.68;;;9.70;;
17631;SDS011;8934;51.194;17.150;2022-09-24T08:12:42;9.63;;;8.73;;
17631;SDS011;8934;51.194;17.150;2022-09-24T08:15:31;11.35;;;10.07;;
17631;SDS011;8934;51.194;17.150;2022-09-24T08:18:19;12.00;;;9.93;;
17631;SDS011;8934;51.194;17.150;2022-09-24T08:21:09;10.60;;;9.50;;
17631;SDS011;8934;51.194;17.150;2022-09-24T08:24:01;9.63;;;8.73;;
17631;SDS011;8934;51.194;17.150;2022-09-24T08:26:49;9.65;;;8.63;;
17631;SDS011;8934;51.194;17.150;2022-09-24T08:29:37;9.38;;;8.48;;
17631;SDS011;8934;51.194;17.150;2022-09-24T08:32:27;8.98;;;8.23;;
17631;SDS011;8934;51.194;17.150;2022-09-24T08:35:15;9.05;;;8.20;;
17631;SDS011;8934;51.194;17.150;2022-09-24T08:38:04;10.43;;;8.45;;
17631;SDS011;8934;51.194;17.150;2022-09-24T08:40:53;8.55;;;7.78;;
17631;SDS011;8934;51.194;17.150;2022-09-24T08:43:49;8.63;;;7.63;;
17631;SDS011;8934;51.194;17.150;2022-09-24T08:46:44;7.78;;;7.07;;
17631;SDS011;8934;51.194;17.150;2022-09-24T08:53:04;9.40;;;7.80;;
17631;SDS011;8934;51.194;17.150;2022-09-24T08:55:59;8.45;;;7.20;;
17631;SDS011;8934;51.194;17.150;2022-09-24T08:58:49;7.32;;;6.68;;
17631;SDS011;8934;51.194;17.150;2022-09-24T09:01:43;7.45;;;6.85;;
17631;SDS011;8934;51.194;17.150;2022-09-24T09:04:39;7.43;;;6.50;;
17631;SDS011;8934;51.194;17.150;2022-09-24T09:07:42;6.97;;;6.32;;
17631;SDS011;8934;51.194;17.150;2022-09-24T09:10:35;6.10;;;5.50;;
17631;SDS011;8934;51.194;17.150;2022-09-24T09:13:27;7.45;;;6.22;;
17631;SDS011;8934;51.194;17.150;2022-09-24T09:16:21;6.07;;;5.57;;
17631;SDS011;8934;51.194;17.150;2022-09-24T09:19:13;5.82;;;5.28;;
17631;SDS011;8934;51.194;17.150;2022-09-24T09:22:04;6.65;;;5.93;;
17631;SDS011;8934;51.194;17.150;2022-09-24T09:25:02;6.20;;;5.65;;
17631;SDS011;8934;51.194;17.150;2022-09-24T09:27:58;5.88;;;5.38;;
17631;SDS011;8934;51.194;17.150;2022-09-24T09:30:52;5.72;;;5.22;;
17631;SDS011;8934;51.194;17.150;2022-09-24T09:34:01;6.97;;;6.15;;
17631;SDS011;8934;51.194;17.150;2022-09-24T09:37:10;6.00;;;5.13;;
17631;SDS011;8934;51.194;17.150;2022-09-24T09:40:17;5.78;;;5.28;;
17631;SDS011;8934;51.194;17.150;2022-09-24T09:43:18;5.80;;;5.35;;
17631;SDS011;8934;51.194;17.150;2022-09-24T09:46:09;5.47;;;5.00;;
17631;SDS011;8934;51.194;17.150;2022-09-24T09:49:04;5.78;;;5.28;;
17631;SDS011;8934;51.194;17.150;2022-09-24T09:51:53;6.15;;;5.65;;
17631;SDS011;8934;51.194;17.150;2022-09-24T09:54:44;5.60;;;5.15;;
17631;SDS011;8934;51.194;17.150;2022-09-24T09:57:33;6.30;;;5.55;;
17631;SDS011;8934;51.194;17.150;2022-09-24T10:00:26;6.95;;;6.35;;
17631;SDS011;8934;51.194;17.150;2022-09-24T10:03:20;11.70;;;6.25;;
17631;SDS011;8934;51.194;17.150;2022-09-24T10:06:11;5.97;;;5.47;;
17631;SDS011;8934;51.194;17.150;2022-09-24T10:09:07;5.93;;;5.43;;
17631;SDS011;8934;51.194;17.150;2022-09-24T10:12:05;4.70;;;4.30;;
17631;SDS011;8934;51.194;17.150;2022-09-24T10:14:57;4.45;;;4.07;;
17631;SDS011;8934;51.194;17.150;2022-09-24T10:17:47;3.63;;;3.33;;
17631;SDS011;8934;51.194;17.150;2022-09-24T10:20:37;4.70;;;3.65;;
17631;SDS011;8934;51.194;17.150;2022-09-24T10:23:28;4.38;;;3.97;;
17631;SDS011;8934;51.194;17.150;2022-09-24T10:26:20;4.53;;;4.07;;
17631;SDS011;8934;51.194;17.150;2022-09-24T10:29:08;5.15;;;4.45;;
17631;SDS011;8934;51.194;17.150;2022-09-24T10:32:20;5.10;;;4.70;;
17631;SDS011;8934;51.194;17.150;2022-09-24T10:35:19;4.47;;;4.07;;
17631;SDS011;8934;51.194;17.150;2022-09-24T10:38:14;5.43;;;4.82;;
17631;SDS011;8934;51.194;17.150;2022-09-24T10:41:12;4.63;;;4.07;;
17631;SDS011;8934;51.194;17.150;2022-09-24T10:44:12;4.65;;;4.18;;
17631;SDS011;8934;51.194;17.150;2022-09-24T10:47:13;5.03;;;4.60;;
17631;SDS011;8934;51.194;17.150;2022-09-24T10:50:18;4.60;;;4.20;;
17631;SDS011;8934;51.194;17.150;2022-09-24T10:53:13;4.30;;;3.30;;
17631;SDS011;8934;51.194;17.150;2022-09-24T10:56:10;6.32;;;3.80;;
17631;SDS011;8934;51.194;17.150;2022-09-24T10:59:17;3.75;;;3.45;;
17631;SDS011;8934;51.194;17.150;2022-09-24T11:05:40;2.85;;;2.65;;
17631;SDS011;8934;51.194;17.150;2022-09-24T11:08:41;2.90;;;2.70;;
17631;SDS011;8934;51.194;17.150;2022-09-24T11:11:54;3.55;;;2.92;;
17631;SDS011;8934;51.194;17.150;2022-09-24T11:14:52;3.10;;;2.80;;
17631;SDS011;8934;51.194;17.150;2022-09-24T11:17:57;3.47;;;3.17;;
17631;SDS011;8934;51.194;17.150;2022-09-24T11:20:58;3.42;;;3.13;;
17631;SDS011;8934;51.194;17.150;2022-09-24T11:24:09;3.35;;;3.05;;
17631;SDS011;8934;51.194;17.150;2022-09-24T11:27:18;3.53;;;3.05;;
17631;SDS011;8934;51.194;17.150;2022-09-24T11:30:19;2.90;;;2.70;;
17631;SDS011;8934;51.194;17.150;2022-09-24T11:33:13;2.92;;;2.72;;
17631;SDS011;8934;51.194;17.150;2022-09-24T11:36:25;3.45;;;3.15;;
17631;SDS011;8934;51.194;17.150;2022-09-24T11:39:25;3.75;;;2.92;;
17631;SDS011;8934;51.194;17.150;2022-09-24T11:42:23;3.40;;;3.13;;
17631;SDS011;8934;51.194;17.150;2022-09-24T11:45:32;3.83;;;3.10;;
17631;SDS011;8934;51.194;17.150;2022-09-24T11:48:44;3.47;;;3.10;;
17631;SDS011;8934;51.194;17.150;2022-09-24T11:51:49;4.03;;;3.40;;
17631;SDS011;8934;51.194;17.150;2022-09-24T11:54:42;3.67;;;3.38;;
17631;SDS011;8934;51.194;17.150;2022-09-24T11:57:38;3.58;;;2.80;;
17631;SDS011;8934;51.194;17.150;2022-09-24T12:00:30;3.42;;;2.95;;
17631;SDS011;8934;51.194;17.150;2022-09-24T12:03:28;3.55;;;3.13;;
17631;SDS011;8934;51.194;17.150;2022-09-24T12:06:26;3.53;;;3.22;;
17631;SDS011;8934;51.194;17.150;2022-09-24T12:09:22;3.30;;;3.00;;
17631;SDS011;8934;51.194;17.150;2022-09-24T12:12:17;3.22;;;2.80;;
17631;SDS011;8934;51.194;17.150;2022-09-24T12:15:11;3.20;;;2.90;;
17631;SDS011;8934;51.194;17.150;2022-09-24T12:18:05;3.25;;;2.95;;
17631;SDS011;8934;51.194;17.150;2022-09-24T12:20:57;4.32;;;3.33;;
17631;SDS011;8934;51.194;17.150;2022-09-24T12:23:47;3.42;;;3.13;;
17631;SDS011;8934;51.194;17.150;2022-09-24T12:26:38;3.30;;;3.00;;
17631;SDS011;8934;51.194;17.150;2022-09-24T12:29:34;7.13;;;2.78;;
17631;SDS011;8934;51.194;17.150;2022-09-24T12:32:46;3.40;;;3.17;;
17631;SDS011;8934;51.194;17.150;2022-09-24T12:35:51;3.47;;;3.17;;
17631;SDS011;8934;51.194;17.150;2022-09-24T12:38:50;3.22;;;2.95;;
17631;SDS011;8934;51.194;17.150;2022-09-24T12:41:42;3.75;;;3.00;;
17631;SDS011;8934;51.194;17.150;2022-09-24T12:44:36;2.72;;;2.40;;
17631;SDS011;8934;51.194;17.150;2022-09-24T12:47:28;2.90;;;2.70;;
17631;SDS011;8934;51.194;17.150;2022-09-24T12:50:20;3.33;;;3.03;;
17631;SDS011;8934;51.194;17.150;2022-09-24T12:53:18;3.30;;;3.10;;
17631;SDS011;8934;51.194;17.150;2022-09-24T12:56:09;3.53;;;3.05;;
17631;SDS011;8934;51.194;17.150;2022-09-24T12:58:59;3.22;;;2.92;;
17631;SDS011;8934;51.194;17.150;2022-09-24T13:01:50;4.63;;;2.58;;
17631;SDS011;8934;51.194;17.150;2022-09-24T13:04:42;3.90;;;3.15;;
17631;SDS011;8934;51.194;17.150;2022-09-24T13:07:32;3.35;;;2.53;;
17631;SDS011;8934;51.194;17.150;2022-09-24T13:10:21;2.58;;;2.38;;
17631;SDS011;8934;51.194;17.150;2022-09-24T13:13:21;2.70;;;2.50;;
17631;SDS011;8934;51.194;17.150;2022-09-24T13:16:17;2.40;;;2.20;;
17631;SDS011;8934;51.194;17.150;2022-09-24T13:19:17;3.17;;;2.88;;
17631;SDS011;8934;51.194;17.150;2022-09-24T13:22:20;2.63;;;2.33;;
17631;SDS011;8934;51.194;17.150;2022-09-24T13:25:21;2.95;;;2.75;;
17631;SDS011;8934;51.194;17.150;2022-09-24T13:31:34;2.60;;;2.40;;
17631;SDS011;8934;51.194;17.150;2022-09-24T13:34:27;3.53;;;2.50;;
17631;SDS011;8934;51.194;17.150;2022-09-24T13:37:18;3.38;;;2.58;;
17631;SDS011;8934;51.194;17.150;2022-09-24T13:40:15;2.63;;;2.40;;
17631;SDS011;8934;51.194;17.150;2022-09-24T13:43:06;2.45;;;2.30;;
17631;SDS011;8934;51.194;17.150;2022-09-24T13:46:00;3.20;;;2.80;;
17631;SDS011;8934;51.194;17.150;2022-09-24T13:48:53;3.28;;;2.75;;
17631;SDS011;8934;51.194;17.150;2022-09-24T13:51:46;3.65;;;2.97;;
17631;SDS011;8934;51.194;17.150;2022-09-24T13:54:47;2.92;;;2.72;;
17631;SDS011;8934;51.194;17.150;2022-09-24T13:57:41;2.35;;;2.15;;
17631;SDS011;8934;51.194;17.150;2022-09-24T14:00:30;2.95;;;2.65;;
17631;SDS011;8934;51.194;17.150;2022-09-24T14:03:24;2.75;;;2.40;;
17631;SDS011;8934;51.194;17.150;2022-09-24T14:06:15;2.80;;;2.60;;
17631;SDS011;8934;51.194;17.150;2022-09-24T14:09:13;3.90;;;3.58;;
17631;SDS011;8934;51.194;17.150;2022-09-24T14:12:11;4.53;;;4.13;;
17631;SDS011;8934;51.194;17.150;2022-09-24T14:15:03;3.60;;;3.05;;
17631;SDS011;8934;51.194;17.150;2022-09-24T14:17:56;2.85;;;2.63;;
17631;SDS011;8934;51.194;17.150;2022-09-24T14:20:45;2.53;;;2.33;;
17631;SDS011;8934;51.194;17.150;2022-09-24T14:23:39;2.40;;;2.20;;
17631;SDS011;8934;51.194;17.150;2022-09-24T14:26:33;2.40;;;2.20;;
17631;SDS011;8934;51.194;17.150;2022-09-24T14:29:24;2.45;;;2.25;;
17631;SDS011;8934;51.194;17.150;2022-09-24T14:32:19;2.55;;;2.45;;
17631;SDS011;8934;51.194;17.150;2022-09-24T14:35:11;3.25;;;2.50;;
17631;SDS011;8934;51.194;17.150;2022-09-24T14:38:05;2.70;;;2.50;;
17631;SDS011;8934;51.194;17.150;2022-09-24T14:41:01;2.67;;;2.40;;
17631;SDS011;8934;51.194;17.150;2022-09-24T14:43:51;3.10;;;2.80;;
17631;SDS011;8934;51.194;17.150;2022-09-24T14:46:44;2.65;;;2.45;;
17631;SDS011;8934;51.194;17.150;2022-09-24T14:49:41;2.58;;;2.38;;
17631;SDS011;8934;51.194;17.150;2022-09-24T14:52:30;2.75;;;2.55;;
17631;SDS011;8934;51.194;17.150;2022-09-24T14:55:20;2.85;;;2.65;;
17631;SDS011;8934;51.194;17.150;2022-09-24T14:58:34;3.83;;;3.40;;
17631;SDS011;8934;51.194;17.150;2022-09-24T15:01:22;3.45;;;3.15;;
17631;SDS011;8934;51.194;17.150;2022-09-24T15:04:18;4.20;;;2.83;;
17631;SDS011;8934;51.194;17.150;2022-09-24T15:07:12;4.35;;;4.05;;
17631;SDS011;8934;51.194;17.150;2022-09-24T15:10:03;6.82;;;6.25;;
17631;SDS011;8934;51.194;17.150;2022-09-24T15:12:52;4.90;;;4.50;;
17631;SDS011;8934;51.194;17.150;2022-09-24T15:15:41;4.43;;;3.67;;
17631;SDS011;8934;51.194;17.150;2022-09-24T15:18:29;4.10;;;3.70;;
17631;SDS011;8934;51.194;17.150;2022-09-24T15:21:17;3.78;;;3.53;;
17631;SDS011;8934;51.194;17.150;2022-09-24T15:24:05;3.40;;;3.05;;
17631;SDS011;8934;51.194;17.150;2022-09-24T15:26:59;2.63;;;2.47;;
17631;SDS011;8934;51.194;17.150;2022-09-24T15:29:48;3.08;;;2.60;;
17631;SDS011;8934;51.194;17.150;2022-09-24T15:32:40;4.00;;;2.60;;
17631;SDS011;8934;51.194;17.150;2022-09-24T15:35:28;3.25;;;2.92;;
17631;SDS011;8934;51.194;17.150;2022-09-24T15:38:18;3.33;;;3.03;;
17631;SDS011;8934;51.194;17.150;2022-09-24T15:41:06;4.97;;;4.47;;
17631;SDS011;8934;51.194;17.150;2022-09-24T15:43:55;4.32;;;3.92;;
17631;SDS011;8934;51.194;17.150;2022-09-24T15:46:44;7.03;;;5.90;;
17631;SDS011;8934;51.194;17.150;2022-09-24T15:49:34;6.53;;;6.00;;
17631;SDS011;8934;51.194;17.150;2022-09-24T15:52:22;8.00;;;7.30;;
17631;SDS011;8934;51.194;17.150;2022-09-24T15:55:14;6.60;;;6.03;;
17631;SDS011;8934;51.194;17.150;2022-09-24T15:58:04;7.25;;;6.65;;
17631;SDS011;8934;51.194;17.150;2022-09-24T16:01:04;8.30;;;7.53;;
17631;SDS011;8934;51.194;17.150;2022-09-24T16:03:52;9.25;;;8.27;;
17631;SDS011;8934;51.194;17.150;2022-09-24T16:06:41;8.63;;;7.88;;
17631;SDS011;8934;51.194;17.150;2022-09-24T16:09:29;8.13;;;7.35;;
17631;SDS011;8934;51.194;17.150;2022-09-24T16:12:18;8.05;;;7.22;;
17631;SDS011;8934;51.194;17.150;2022-09-24T16:15:07;8.50;;;7.70;;
17631;SDS011;8934;51.194;17.150;2022-09-24T16:17:59;6.80;;;6.20;;
17631;SDS011;8934;51.194;17.150;2022-09-24T16:20:47;6.80;;;6.13;;
17631;SDS011;8934;51.194;17.150;2022-09-24T16:23:36;7.15;;;6.53;;
17631;SDS011;8934;51.194;17.150;2022-09-24T16:26:24;6.55;;;5.90;;
17631;SDS011;8934;51.194;17.150;2022-09-24T16:29:12;7.18;;;5.97;;
17631;SDS011;8934;51.194;17.150;2022-09-24T16:32:02;6.78;;;6.13;;
17631;SDS011;8934;51.194;17.150;2022-09-24T16:34:50;6.05;;;5.55;;
17631;SDS011;8934;51.194;17.150;2022-09-24T16:37:39;8.43;;;7.53;;
17631;SDS011;8934;51.194;17.150;2022-09-24T16:40:28;8.18;;;7.43;;
17631;SDS011;8934;51.194;17.150;2022-09-24T16:43:17;9.13;;;7.93;;
17631;SDS011;8934;51.194;17.150;2022-09-24T16:46:06;9.00;;;8.10;;
17631;SDS011;8934;51.194;17.150;2022-09-24T16:48:55;11.98;;;10.25;;
17631;SDS011;8934;51.194;17.150;2022-09-24T16:51:43;11.07;;;10.00;;
17631;SDS011;8934;51.194;17.150;2022-09-24T16:54:30;11.80;;;10.50;;
17631;SDS011;8934;51.194;17.150;2022-09-24T16:57:20;11.48;;;10.30;;
17631;SDS011;8934;51.194;17.150;2022-09-24T17:00:08;10.32;;;9.32;;
17631;SDS011;8934;51.194;17.150;2022-09-24T17:02:57;9.43;;;8.52;;
17631;SDS011;8934;51.194;17.150;2022-09-24T17:05:45;10.27;;;8.85;;
17631;SDS011;8934;51.194;17.150;2022-09-24T17:08:34;8.23;;;7.53;;
17631;SDS011;8934;51.194;17.150;2022-09-24T17:11:40;8.75;;;7.95;;
17631;SDS011;8934;51.194;17.150;2022-09-24T17:14:31;8.30;;;7.68;;